sensor_id;sensor_type;location;lat;lon;timestamp;temperature;humidity
2757;DHT22;1386;50.862;6.494;2024-01-27T00:01:05;4.60;99.90
2757;DHT22;1386;50.862;6.494;2024-01-27T00:03:32;4.60;99.90
2757;DHT22;1386;50.862;6.494;2024-01-27T00:05:58;4.50;99.90
2757;DHT22;1386;50.862;6.494;2024-01-27T00:08:26;4.50;99.90
2757;DHT22;1386;50.862;6.494;2024-01-27T00:10:53;4.50;99.90
2757;DHT22;1386;50.862;6.494;2024-01-27T00:13:20;4.40;99.90
2757;DHT22;1386;50.862;6.494;2024-01-27T00:15:47;4.40;99.90
2757;DHT22;1386;50.862;6.494;2024-01-27T00:18:15;4.40;99.90
2757;DHT22;1386;50.862;6.494;2024-01-27T00:20:42;4.40;99.90
2757;DHT22;1386;50.862;6.494;2024-01-27T00:23:09;4.30;99.90
2757;DHT22;1386;50.862;6.494;2024-01-27T00:25:37;4.30;99.90
2757;DHT22;1386;50.862;6.494;2024-01-27T00:28:04;4.30;99.90
2757;DHT22;1386;50.862;6.494;2024-01-27T00:30:31;4.20;99.90
2757;DHT22;1386;50.862;6.494;2024-01-27T00:32:58;4.20;99.90
2757;DHT22;1386;50.862;6.494;2024-01-27T00:35:25;4.20;99.90
2757;DHT22;1386;50.862;6.494;2024-01-27T00:37:52;4.10;99.90
2757;DHT22;1386;50.862;6.494;2024-01-27T00:40:19;4.10;99.90
2757;DHT22;1386;50.862;6.494;2024-01-27T00:42:47;4.10;99.90
2757;DHT22;1386;50.862;6.494;2024-01-27T00:45:14;4.10;99.90
2757;DHT22;1386;50.862;6.494;2024-01-27T00:47:41;4.10;99.90
2757;DHT22;1386;50.862;6.494;2024-01-27T00:50:08;4.10;99.90
2757;DHT22;1386;50.862;6.494;2024-01-27T00:52:36;4.10;99.90
2757;DHT22;1386;50.862;6.494;2024-01-27T00:55:04;4.10;99.90
2757;DHT22;1386;50.862;6.494;2024-01-27T00:57:31;4.00;99.90
2757;DHT22;1386;50.862;6.494;2024-01-27T00:59:59;4.00;99.90
2757;DHT22;1386;50.862;6.494;2024-01-27T01:02:25;4.00;99.90
2757;DHT22;1386;50.862;6.494;2024-01-27T01:04:51;4.00;99.90
2757;DHT22;1386;50.862;6.494;2024-01-27T01:07:18;4.00;99.90
2757;DHT22;1386;50.862;6.494;2024-01-27T01:09:45;4.00;99.90
2757;DHT22;1386;50.862;6.494;2024-01-27T01:12:12;3.90;99.90
2757;DHT22;1386;50.862;6.494;2024-01-27T01:14:40;3.90;99.90
2757;DHT22;1386;50.862;6.494;2024-01-27T01:17:09;3.90;99.90
2757;DHT22;1386;50.862;6.494;2024-01-27T01:19:36;3.90;99.90
2757;DHT22;1386;50.862;6.494;2024-01-27T01:22:04;3.90;99.90
2757;DHT22;1386;50.862;6.494;2024-01-27T01:24:31;3.90;99.90
2757;DHT22;1386;50.862;6.494;2024-01-27T01:26:58;3.90;99.90
2757;DHT22;1386;50.862;6.494;2024-01-27T01:29:24;3.80;99.90
2757;DHT22;1386;50.862;6.494;2024-01-27T01:31:51;3.80;99.90
2757;DHT22;1386;50.862;6.494;2024-01-27T01:34:20;3.80;99.90
2757;DHT22;1386;50.862;6.494;2024-01-27T01:36:46;3.80;99.90
2757;DHT22;1386;50.862;6.494;2024-01-27T01:39:14;3.80;99.90
2757;DHT22;1386;50.862;6.494;2024-01-27T01:41:41;3.70;99.90
2757;DHT22;1386;50.862;6.494;2024-01-27T01:44:08;3.70;99.90
2757;DHT22;1386;50.862;6.494;2024-01-27T01:46:35;3.70;99.90
2757;DHT22;1386;50.862;6.494;2024-01-27T01:49:02;3.70;99.90
2757;DHT22;1386;50.862;6.494;2024-01-27T01:51:31;3.70;99.90
2757;DHT22;1386;50.862;6.494;2024-01-27T01:53:58;3.70;99.90
2757;DHT22;1386;50.862;6.494;2024-01-27T01:56:25;3.60;99.90
2757;DHT22;1386;50.862;6.494;2024-01-27T01:58:54;3.60;99.90
2757;DHT22;1386;50.862;6.494;2024-01-27T02:01:21;3.60;99.90
2757;DHT22;1386;50.862;6.494;2024-01-27T02:03:52;3.60;99.90
2757;DHT22;1386;50.862;6.494;2024-01-27T02:06:20;3.60;99.90
2757;DHT22;1386;50.862;6.494;2024-01-27T02:08:48;3.60;99.90
2757;DHT22;1386;50.862;6.494;2024-01-27T02:11:15;3.60;99.90
2757;DHT22;1386;50.862;6.494;2024-01-27T02:13:42;3.60;99.90
2757;DHT22;1386;50.862;6.494;2024-01-27T02:16:09;3.60;99.90
2757;DHT22;1386;50.862;6.494;2024-01-27T02:18:36;3.50;99.90
2757;DHT22;1386;50.862;6.494;2024-01-27T02:21:03;3.50;99.90
2757;DHT22;1386;50.862;6.494;2024-01-27T02:23:30;3.50;99.90
2757;DHT22;1386;50.862;6.494;2024-01-27T02:25:58;3.50;99.90
2757;DHT22;1386;50.862;6.494;2024-01-27T02:28:25;3.50;99.90
2757;DHT22;1386;50.862;6.494;2024-01-27T02:30:52;3.50;99.90
2757;DHT22;1386;50.862;6.494;2024-01-27T02:33:19;3.50;99.90
2757;DHT22;1386;50.862;6.494;2024-01-27T02:35:46;3.50;99.90
2757;DHT22;1386;50.862;6.494;2024-01-27T02:38:13;3.50;99.90
2757;DHT22;1386;50.862;6.494;2024-01-27T02:40:40;3.50;99.90
2757;DHT22;1386;50.862;6.494;2024-01-27T02:43:08;3.50;99.90
2757;DHT22;1386;50.862;6.494;2024-01-27T02:45:35;3.50;99.90
2757;DHT22;1386;50.862;6.494;2024-01-27T02:48:02;3.50;99.90
2757;DHT22;1386;50.862;6.494;2024-01-27T02:50:29;3.50;99.90
2757;DHT22;1386;50.862;6.494;2024-01-27T02:52:56;3.50;99.90
2757;DHT22;1386;50.862;6.494;2024-01-27T02:55:23;3.50;99.90
2757;DHT22;1386;50.862;6.494;2024-01-27T02:57:50;3.50;99.90
2757;DHT22;1386;50.862;6.494;2024-01-27T03:00:18;3.40;99.90
2757;DHT22;1386;50.862;6.494;2024-01-27T03:02:45;3.40;99.90
2757;DHT22;1386;50.862;6.494;2024-01-27T03:05:12;3.40;99.90
2757;DHT22;1386;50.862;6.494;2024-01-27T03:07:39;3.40;99.90
2757;DHT22;1386;50.862;6.494;2024-01-27T03:10:07;3.40;99.90
2757;DHT22;1386;50.862;6.494;2024-01-27T03:12:34;3.40;99.90
2757;DHT22;1386;50.862;6.494;2024-01-27T03:15:01;3.40;99.90
2757;DHT22;1386;50.862;6.494;2024-01-27T03:17:29;3.30;99.90
2757;DHT22;1386;50.862;6.494;2024-01-27T03:19:56;3.30;99.90
2757;DHT22;1386;50.862;6.494;2024-01-27T03:22:23;3.30;99.90
2757;DHT22;1386;50.862;6.494;2024-01-27T03:24:49;3.30;99.90
2757;DHT22;1386;50.862;6.494;2024-01-27T03:27:17;3.30;99.90
2757;DHT22;1386;50.862;6.494;2024-01-27T03:29:44;3.20;99.90
2757;DHT22;1386;50.862;6.494;2024-01-27T03:32:10;3.20;99.90
2757;DHT22;1386;50.862;6.494;2024-01-27T03:34:43;3.20;99.90
2757;DHT22;1386;50.862;6.494;2024-01-27T03:37:10;3.20;99.90
2757;DHT22;1386;50.862;6.494;2024-01-27T03:39:37;3.10;99.90
2757;DHT22;1386;50.862;6.494;2024-01-27T03:42:04;3.10;99.90
2757;DHT22;1386;50.862;6.494;2024-01-27T03:44:31;3.10;99.90
2757;DHT22;1386;50.862;6.494;2024-01-27T03:46:57;3.10;99.90
2757;DHT22;1386;50.862;6.494;2024-01-27T03:49:24;3.10;99.90
2757;DHT22;1386;50.862;6.494;2024-01-27T03:51:52;3.10;99.90
2757;DHT22;1386;50.862;6.494;2024-01-27T03:54:19;3.10;99.90
2757;DHT22;1386;50.862;6.494;2024-01-27T03:56:46;3.10;99.90
2757;DHT22;1386;50.862;6.494;2024-01-27T03:59:13;3.10;99.90
2757;DHT22;1386;50.862;6.494;2024-01-27T04:01:40;3.10;99.90
2757;DHT22;1386;50.862;6.494;2024-01-27T04:04:06;3.10;99.90
2757;DHT22;1386;50.862;6.494;2024-01-27T04:06:36;3.10;99.90
2757;DHT22;1386;50.862;6.494;2024-01-27T04:09:05;3.10;99.90
2757;DHT22;1386;50.862;6.494;2024-01-27T04:11:34;3.10;99.90
2757;DHT22;1386;50.862;6.494;2024-01-27T04:14:01;3.10;99.90
2757;DHT22;1386;50.862;6.494;2024-01-27T04:16:28;3.10;99.90
2757;DHT22;1386;50.862;6.494;2024-01-27T04:18:55;3.10;99.90
2757;DHT22;1386;50.862;6.494;2024-01-27T04:21:22;3.10;99.90
2757;DHT22;1386;50.862;6.494;2024-01-27T04:23:49;3.00;99.90
2757;DHT22;1386;50.862;6.494;2024-01-27T04:26:17;3.10;99.90
2757;DHT22;1386;50.862;6.494;2024-01-27T04:28:44;3.10;99.90
2757;DHT22;1386;50.862;6.494;2024-01-27T04:31:11;3.10;99.90
2757;DHT22;1386;50.862;6.494;2024-01-27T04:33:38;3.10;99.90
2757;DHT22;1386;50.862;6.494;2024-01-27T04:36:05;3.00;99.90
2757;DHT22;1386;50.862;6.494;2024-01-27T04:38:34;3.00;99.90
2757;DHT22;1386;50.862;6.494;2024-01-27T04:41:01;3.10;99.90
2757;DHT22;1386;50.862;6.494;2024-01-27T04:43:29;3.10;99.90
2757;DHT22;1386;50.862;6.494;2024-01-27T04:45:56;3.00;99.90
2757;DHT22;1386;50.862;6.494;2024-01-27T04:48:23;3.00;99.90
2757;DHT22;1386;50.862;6.494;2024-01-27T04:50:50;3.00;99.90
2757;DHT22;1386;50.862;6.494;2024-01-27T04:53:16;3.00;99.90
2757;DHT22;1386;50.862;6.494;2024-01-27T04:55:43;3.00;99.90
2757;DHT22;1386;50.862;6.494;2024-01-27T04:58:10;3.00;99.90
2757;DHT22;1386;50.862;6.494;2024-01-27T05:00:38;3.00;99.90
2757;DHT22;1386;50.862;6.494;2024-01-27T05:03:05;2.90;99.90
2757;DHT22;1386;50.862;6.494;2024-01-27T05:05:36;2.90;99.90
2757;DHT22;1386;50.862;6.494;2024-01-27T05:08:03;2.90;99.90
2757;DHT22;1386;50.862;6.494;2024-01-27T05:10:30;2.90;99.90
2757;DHT22;1386;50.862;6.494;2024-01-27T05:12:57;2.80;99.90
2757;DHT22;1386;50.862;6.494;2024-01-27T05:15:25;2.80;99.90
2757;DHT22;1386;50.862;6.494;2024-01-27T05:17:53;2.80;99.90
2757;DHT22;1386;50.862;6.494;2024-01-27T05:20:20;2.70;99.90
2757;DHT22;1386;50.862;6.494;2024-01-27T05:22:47;2.70;99.90
2757;DHT22;1386;50.862;6.494;2024-01-27T05:25:13;2.70;99.90
2757;DHT22;1386;50.862;6.494;2024-01-27T05:27:42;2.70;99.90
2757;DHT22;1386;50.862;6.494;2024-01-27T05:30:09;2.70;99.90
2757;DHT22;1386;50.862;6.494;2024-01-27T05:32:36;2.70;99.90
2757;DHT22;1386;50.862;6.494;2024-01-27T05:35:06;2.70;99.90
2757;DHT22;1386;50.862;6.494;2024-01-27T05:37:33;2.60;99.90
2757;DHT22;1386;50.862;6.494;2024-01-27T05:40:00;2.60;99.90
2757;DHT22;1386;50.862;6.494;2024-01-27T05:42:28;2.50;99.90
2757;DHT22;1386;50.862;6.494;2024-01-27T05:44:54;2.50;99.90
2757;DHT22;1386;50.862;6.494;2024-01-27T05:47:21;2.40;99.90
2757;DHT22;1386;50.862;6.494;2024-01-27T05:49:48;2.40;99.90
2757;DHT22;1386;50.862;6.494;2024-01-27T05:52:16;2.40;99.90
2757;DHT22;1386;50.862;6.494;2024-01-27T05:54:43;2.40;99.90
2757;DHT22;1386;50.862;6.494;2024-01-27T05:57:10;2.40;99.90
2757;DHT22;1386;50.862;6.494;2024-01-27T05:59:37;2.30;99.90
2757;DHT22;1386;50.862;6.494;2024-01-27T06:02:03;2.30;99.90
2757;DHT22;1386;50.862;6.494;2024-01-27T06:04:31;2.40;99.90
2757;DHT22;1386;50.862;6.494;2024-01-27T06:06:58;2.30;99.90
2757;DHT22;1386;50.862;6.494;2024-01-27T06:09:27;2.30;99.90
2757;DHT22;1386;50.862;6.494;2024-01-27T06:11:54;2.30;99.90
2757;DHT22;1386;50.862;6.494;2024-01-27T06:14:21;2.30;99.90
2757;DHT22;1386;50.862;6.494;2024-01-27T06:16:48;2.30;99.90
2757;DHT22;1386;50.862;6.494;2024-01-27T06:19:16;2.30;99.90
2757;DHT22;1386;50.862;6.494;2024-01-27T06:21:43;2.30;99.90
2757;DHT22;1386;50.862;6.494;2024-01-27T06:24:10;2.30;99.90
2757;DHT22;1386;50.862;6.494;2024-01-27T06:26:38;2.30;99.90
2757;DHT22;1386;50.862;6.494;2024-01-27T06:29:05;2.20;99.90
2757;DHT22;1386;50.862;6.494;2024-01-27T06:31:32;2.20;99.90
2757;DHT22;1386;50.862;6.494;2024-01-27T06:33:59;2.20;99.90
2757;DHT22;1386;50.862;6.494;2024-01-27T06:36:25;2.20;99.90
2757;DHT22;1386;50.862;6.494;2024-01-27T06:38:53;2.20;99.90
2757;DHT22;1386;50.862;6.494;2024-01-27T06:41:20;2.20;99.90
2757;DHT22;1386;50.862;6.494;2024-01-27T06:43:48;2.20;99.90
2757;DHT22;1386;50.862;6.494;2024-01-27T06:46:15;2.20;99.90
2757;DHT22;1386;50.862;6.494;2024-01-27T06:48:42;2.20;99.90
2757;DHT22;1386;50.862;6.494;2024-01-27T06:51:09;2.20;99.90
2757;DHT22;1386;50.862;6.494;2024-01-27T06:53:35;2.10;99.90
2757;DHT22;1386;50.862;6.494;2024-01-27T06:56:03;2.20;99.90
2757;DHT22;1386;50.862;6.494;2024-01-27T06:58:29;2.20;99.90
2757;DHT22;1386;50.862;6.494;2024-01-27T07:00:58;2.20;99.90
2757;DHT22;1386;50.862;6.494;2024-01-27T07:03:24;2.10;99.90
2757;DHT22;1386;50.862;6.494;2024-01-27T07:05:51;2.10;99.90
2757;DHT22;1386;50.862;6.494;2024-01-27T07:08:18;2.10;99.90
2757;DHT22;1386;50.862;6.494;2024-01-27T07:10:45;2.00;99.90
2757;DHT22;1386;50.862;6.494;2024-01-27T07:13:12;2.00;99.90
2757;DHT22;1386;50.862;6.494;2024-01-27T07:15:39;2.00;99.90
2757;DHT22;1386;50.862;6.494;2024-01-27T07:18:07;2.00;99.90
2757;DHT22;1386;50.862;6.494;2024-01-27T07:20:34;2.00;99.90
2757;DHT22;1386;50.862;6.494;2024-01-27T07:23:02;2.00;99.90
2757;DHT22;1386;50.862;6.494;2024-01-27T07:25:29;2.00;99.90
2757;DHT22;1386;50.862;6.494;2024-01-27T07:27:56;2.00;99.90
2757;DHT22;1386;50.862;6.494;2024-01-27T07:30:23;2.00;99.90
2757;DHT22;1386;50.862;6.494;2024-01-27T07:32:50;2.10;99.90
2757;DHT22;1386;50.862;6.494;2024-01-27T07:35:18;2.00;99.90
2757;DHT22;1386;50.862;6.494;2024-01-27T07:37:45;2.00;99.90
2757;DHT22;1386;50.862;6.494;2024-01-27T07:40:12;2.00;99.90
2757;DHT22;1386;50.862;6.494;2024-01-27T07:42:39;2.00;99.90
2757;DHT22;1386;50.862;6.494;2024-01-27T07:45:07;2.00;99.90
2757;DHT22;1386;50.862;6.494;2024-01-27T07:47:35;2.00;99.90
2757;DHT22;1386;50.862;6.494;2024-01-27T07:50:02;2.00;99.90
2757;DHT22;1386;50.862;6.494;2024-01-27T07:52:30;2.00;99.90
2757;DHT22;1386;50.862;6.494;2024-01-27T07:54:57;2.00;99.90
2757;DHT22;1386;50.862;6.494;2024-01-27T07:57:24;2.00;99.90
2757;DHT22;1386;50.862;6.494;2024-01-27T07:59:51;2.00;99.90
2757;DHT22;1386;50.862;6.494;2024-01-27T08:02:18;2.10;99.90
2757;DHT22;1386;50.862;6.494;2024-01-27T08:04:44;2.10;99.90
2757;DHT22;1386;50.862;6.494;2024-01-27T08:07:11;2.10;99.90
2757;DHT22;1386;50.862;6.494;2024-01-27T08:09:41;2.20;99.90
2757;DHT22;1386;50.862;6.494;2024-01-27T08:12:08;2.20;99.90
2757;DHT22;1386;50.862;6.494;2024-01-27T08:14:35;2.20;99.90
2757;DHT22;1386;50.862;6.494;2024-01-27T08:17:02;2.30;99.90
2757;DHT22;1386;50.862;6.494;2024-01-27T08:19:30;2.30;99.90
2757;DHT22;1386;50.862;6.494;2024-01-27T08:21:56;2.30;99.90
2757;DHT22;1386;50.862;6.494;2024-01-27T08:24:24;2.40;99.90
2757;DHT22;1386;50.862;6.494;2024-01-27T08:26:52;2.40;99.90
2757;DHT22;1386;50.862;6.494;2024-01-27T08:29:19;2.50;99.90
2757;DHT22;1386;50.862;6.494;2024-01-27T08:31:46;2.60;99.90
2757;DHT22;1386;50.862;6.494;2024-01-27T08:34:13;2.80;99.90
2757;DHT22;1386;50.862;6.494;2024-01-27T08:36:40;3.40;99.90
2757;DHT22;1386;50.862;6.494;2024-01-27T08:39:07;3.30;99.90
2757;DHT22;1386;50.862;6.494;2024-01-27T08:41:37;3.30;99.90
2757;DHT22;1386;50.862;6.494;2024-01-27T08:44:06;3.40;99.90
2757;DHT22;1386;50.862;6.494;2024-01-27T08:46:33;3.40;99.90
2757;DHT22;1386;50.862;6.494;2024-01-27T08:49:28;3.50;99.90
2757;DHT22;1386;50.862;6.494;2024-01-27T08:52:25;3.90;99.90
2757;DHT22;1386;50.862;6.494;2024-01-27T08:54:52;4.20;99.90
2757;DHT22;1386;50.862;6.494;2024-01-27T08:57:21;4.20;99.90
2757;DHT22;1386;50.862;6.494;2024-01-27T09:00:11;4.20;99.90
2757;DHT22;1386;50.862;6.494;2024-01-27T09:02:39;4.20;99.90
2757;DHT22;1386;50.862;6.494;2024-01-27T09:08:07;4.20;99.90
2757;DHT22;1386;50.862;6.494;2024-01-27T09:10:34;4.40;99.90
2757;DHT22;1386;50.862;6.494;2024-01-27T09:13:01;4.40;99.90
2757;DHT22;1386;50.862;6.494;2024-01-27T09:15:29;4.40;99.90
2757;DHT22;1386;50.862;6.494;2024-01-27T09:17:56;4.50;99.90
2757;DHT22;1386;50.862;6.494;2024-01-27T09:20:23;4.60;99.90
2757;DHT22;1386;50.862;6.494;2024-01-27T09:22:50;4.70;99.90
2757;DHT22;1386;50.862;6.494;2024-01-27T09:25:17;4.80;99.90
2757;DHT22;1386;50.862;6.494;2024-01-27T09:27:44;4.90;99.90
2757;DHT22;1386;50.862;6.494;2024-01-27T09:30:12;5.20;99.90
2757;DHT22;1386;50.862;6.494;2024-01-27T09:32:44;5.70;99.90
2757;DHT22;1386;50.862;6.494;2024-01-27T09:35:14;5.70;99.90
2757;DHT22;1386;50.862;6.494;2024-01-27T09:37:46;5.80;99.90
2757;DHT22;1386;50.862;6.494;2024-01-27T09:40:17;5.90;99.90
2757;DHT22;1386;50.862;6.494;2024-01-27T09:42:51;6.00;99.90
2757;DHT22;1386;50.862;6.494;2024-01-27T09:45:21;6.10;99.90
2757;DHT22;1386;50.862;6.494;2024-01-27T09:47:51;6.20;99.90
2757;DHT22;1386;50.862;6.494;2024-01-27T09:50:22;6.20;99.90
2757;DHT22;1386;50.862;6.494;2024-01-27T09:52:50;6.30;99.90
2757;DHT22;1386;50.862;6.494;2024-01-27T09:55:17;6.40;99.90
2757;DHT22;1386;50.862;6.494;2024-01-27T09:57:44;6.50;99.90
2757;DHT22;1386;50.862;6.494;2024-01-27T10:00:12;6.60;99.90
2757;DHT22;1386;50.862;6.494;2024-01-27T10:51:23;8.80;99.90
2757;DHT22;1386;50.862;6.494;2024-01-27T10:53:52;8.90;99.90
2757;DHT22;1386;50.862;6.494;2024-01-27T10:56:22;9.00;99.90
2757;DHT22;1386;50.862;6.494;2024-01-27T10:58:50;9.10;99.90
2757;DHT22;1386;50.862;6.494;2024-01-27T11:01:19;9.30;99.90
2757;DHT22;1386;50.862;6.494;2024-01-27T11:03:49;9.30;99.90
2757;DHT22;1386;50.862;6.494;2024-01-27T11:06:19;9.40;99.90
2757;DHT22;1386;50.862;6.494;2024-01-27T11:08:49;9.50;99.90
2757;DHT22;1386;50.862;6.494;2024-01-27T11:11:17;9.60;99.90
2757;DHT22;1386;50.862;6.494;2024-01-27T11:13:45;9.70;99.90
2757;DHT22;1386;50.862;6.494;2024-01-27T11:16:17;9.80;99.90
2757;DHT22;1386;50.862;6.494;2024-01-27T11:18:45;10.00;99.90
2757;DHT22;1386;50.862;6.494;2024-01-27T11:21:14;10.20;99.90
2757;DHT22;1386;50.862;6.494;2024-01-27T11:23:43;10.50;99.90
2757;DHT22;1386;50.862;6.494;2024-01-27T11:26:20;10.70;99.90
2757;DHT22;1386;50.862;6.494;2024-01-27T11:28:49;10.90;99.90
2757;DHT22;1386;50.862;6.494;2024-01-27T11:31:18;10.90;99.90
2757;DHT22;1386;50.862;6.494;2024-01-27T11:33:48;10.80;99.90
2757;DHT22;1386;50.862;6.494;2024-01-27T11:36:19;10.90;99.90
2757;DHT22;1386;50.862;6.494;2024-01-27T11:38:49;10.80;99.90
2757;DHT22;1386;50.862;6.494;2024-01-27T11:41:24;10.90;99.90
2757;DHT22;1386;50.862;6.494;2024-01-27T11:43:52;10.90;99.90
2757;DHT22;1386;50.862;6.494;2024-01-27T11:46:22;10.90;99.90
2757;DHT22;1386;50.862;6.494;2024-01-27T11:48:50;11.00;99.90
2757;DHT22;1386;50.862;6.494;2024-01-27T11:51:18;11.00;99.90
2757;DHT22;1386;50.862;6.494;2024-01-27T11:53:46;11.00;99.90
2757;DHT22;1386;50.862;6.494;2024-01-27T11:56:15;11.00;99.90
2757;DHT22;1386;50.862;6.494;2024-01-27T11:58:47;11.00;99.90
2757;DHT22;1386;50.862;6.494;2024-01-27T12:01:15;11.10;99.90
2757;DHT22;1386;50.862;6.494;2024-01-27T12:03:43;11.10;99.90
2757;DHT22;1386;50.862;6.494;2024-01-27T12:06:11;11.10;99.90
2757;DHT22;1386;50.862;6.494;2024-01-27T12:08:38;11.10;99.90
2757;DHT22;1386;50.862;6.494;2024-01-27T12:11:06;11.00;99.90
2757;DHT22;1386;50.862;6.494;2024-01-27T12:13:37;11.00;99.90
2757;DHT22;1386;50.862;6.494;2024-01-27T12:16:05;11.10;99.90
2757;DHT22;1386;50.862;6.494;2024-01-27T12:18:33;11.30;99.90
2757;DHT22;1386;50.862;6.494;2024-01-27T12:21:00;11.50;99.90
2757;DHT22;1386;50.862;6.494;2024-01-27T12:23:27;11.80;99.90
2757;DHT22;1386;50.862;6.494;2024-01-27T12:25:55;12.00;99.90
2757;DHT22;1386;50.862;6.494;2024-01-27T12:28:23;12.10;99.90
2757;DHT22;1386;50.862;6.494;2024-01-27T12:30:54;12.20;99.90
2757;DHT22;1386;50.862;6.494;2024-01-27T12:33:21;12.00;99.90
2757;DHT22;1386;50.862;6.494;2024-01-27T12:35:51;11.90;99.90
2757;DHT22;1386;50.862;6.494;2024-01-27T12:38:20;11.70;99.90
2757;DHT22;1386;50.862;6.494;2024-01-27T12:40:47;11.70;99.90
2757;DHT22;1386;50.862;6.494;2024-01-27T12:43:14;11.70;99.90
2757;DHT22;1386;50.862;6.494;2024-01-27T12:45:41;11.70;99.90
2757;DHT22;1386;50.862;6.494;2024-01-27T12:48:10;11.70;99.90
2757;DHT22;1386;50.862;6.494;2024-01-27T12:50:37;11.70;99.90
2757;DHT22;1386;50.862;6.494;2024-01-27T12:53:04;11.70;99.90
2757;DHT22;1386;50.862;6.494;2024-01-27T12:55:31;11.70;99.90
2757;DHT22;1386;50.862;6.494;2024-01-27T12:57:58;11.70;99.90
2757;DHT22;1386;50.862;6.494;2024-01-27T13:00:26;11.70;99.90
2757;DHT22;1386;50.862;6.494;2024-01-27T13:02:53;11.70;99.90
2757;DHT22;1386;50.862;6.494;2024-01-27T13:05:21;11.70;99.90
2757;DHT22;1386;50.862;6.494;2024-01-27T13:07:48;11.80;99.90
2757;DHT22;1386;50.862;6.494;2024-01-27T13:10:15;11.80;99.90
2757;DHT22;1386;50.862;6.494;2024-01-27T13:12:42;11.80;99.90
2757;DHT22;1386;50.862;6.494;2024-01-27T13:15:10;11.70;99.90
2757;DHT22;1386;50.862;6.494;2024-01-27T13:17:37;11.60;99.90
2757;DHT22;1386;50.862;6.494;2024-01-27T13:20:05;11.70;99.90
2757;DHT22;1386;50.862;6.494;2024-01-27T13:22:34;11.60;99.90
2757;DHT22;1386;50.862;6.494;2024-01-27T13:25:01;11.60;99.90
2757;DHT22;1386;50.862;6.494;2024-01-27T13:27:30;11.50;99.90
2757;DHT22;1386;50.862;6.494;2024-01-27T13:29:57;11.30;99.90
2757;DHT22;1386;50.862;6.494;2024-01-27T13:32:23;11.30;99.90
2757;DHT22;1386;50.862;6.494;2024-01-27T13:34:52;11.30;99.90
2757;DHT22;1386;50.862;6.494;2024-01-27T13:37:19;11.20;99.90
2757;DHT22;1386;50.862;6.494;2024-01-27T13:39:49;11.20;99.90
2757;DHT22;1386;50.862;6.494;2024-01-27T13:42:16;11.10;99.90
2757;DHT22;1386;50.862;6.494;2024-01-27T13:44:43;11.20;99.90
2757;DHT22;1386;50.862;6.494;2024-01-27T13:47:18;11.20;99.90
2757;DHT22;1386;50.862;6.494;2024-01-27T13:49:45;11.20;99.90
2757;DHT22;1386;50.862;6.494;2024-01-27T13:52:12;11.10;99.90
2757;DHT22;1386;50.862;6.494;2024-01-27T13:54:39;11.00;99.90
2757;DHT22;1386;50.862;6.494;2024-01-27T13:57:09;11.00;99.90
2757;DHT22;1386;50.862;6.494;2024-01-27T13:59:37;10.90;99.90
2757;DHT22;1386;50.862;6.494;2024-01-27T14:02:04;10.90;99.90
2757;DHT22;1386;50.862;6.494;2024-01-27T14:04:31;10.80;99.90
2757;DHT22;1386;50.862;6.494;2024-01-27T14:07:00;10.80;99.90
2757;DHT22;1386;50.862;6.494;2024-01-27T14:09:28;10.80;99.90
2757;DHT22;1386;50.862;6.494;2024-01-27T14:11:55;10.80;99.90
2757;DHT22;1386;50.862;6.494;2024-01-27T14:14:26;10.70;99.90
2757;DHT22;1386;50.862;6.494;2024-01-27T14:17:04;10.70;99.90
2757;DHT22;1386;50.862;6.494;2024-01-27T14:19:33;10.60;99.90
2757;DHT22;1386;50.862;6.494;2024-01-27T14:22:04;10.50;99.90
2757;DHT22;1386;50.862;6.494;2024-01-27T14:24:51;10.40;99.90
2757;DHT22;1386;50.862;6.494;2024-01-27T14:27:42;10.40;99.90
2757;DHT22;1386;50.862;6.494;2024-01-27T14:30:33;10.30;99.90
2757;DHT22;1386;50.862;6.494;2024-01-27T14:33:15;10.20;99.90
2757;DHT22;1386;50.862;6.494;2024-01-27T14:36:03;10.10;99.90
2757;DHT22;1386;50.862;6.494;2024-01-27T14:38:34;9.90;99.90
2757;DHT22;1386;50.862;6.494;2024-01-27T14:41:40;9.90;99.90
2757;DHT22;1386;50.862;6.494;2024-01-27T14:44:32;9.80;99.90
2757;DHT22;1386;50.862;6.494;2024-01-27T14:47:24;9.70;99.90
2757;DHT22;1386;50.862;6.494;2024-01-27T14:50:06;9.70;99.90
2757;DHT22;1386;50.862;6.494;2024-01-27T14:52:58;9.70;99.90
2757;DHT22;1386;50.862;6.494;2024-01-27T14:55:40;9.50;99.90
2757;DHT22;1386;50.862;6.494;2024-01-27T14:58:21;9.50;99.90
2757;DHT22;1386;50.862;6.494;2024-01-27T15:00:59;9.50;99.90
2757;DHT22;1386;50.862;6.494;2024-01-27T15:03:58;9.40;99.90
2757;DHT22;1386;50.862;6.494;2024-01-27T15:06:50;9.30;99.90
2757;DHT22;1386;50.862;6.494;2024-01-27T15:09:39;9.20;99.90
2757;DHT22;1386;50.862;6.494;2024-01-27T15:12:22;9.20;99.90
2757;DHT22;1386;50.862;6.494;2024-01-27T15:15:10;9.10;99.90
2757;DHT22;1386;50.862;6.494;2024-01-27T15:17:48;9.00;99.90
2757;DHT22;1386;50.862;6.494;2024-01-27T15:20:28;9.00;99.90
2757;DHT22;1386;50.862;6.494;2024-01-27T15:23:22;9.00;99.90
2757;DHT22;1386;50.862;6.494;2024-01-27T15:25:59;8.90;99.90
2757;DHT22;1386;50.862;6.494;2024-01-27T15:31:46;8.80;99.90
2757;DHT22;1386;50.862;6.494;2024-01-27T15:34:20;8.70;99.90
2757;DHT22;1386;50.862;6.494;2024-01-27T15:37:08;8.60;99.90
2757;DHT22;1386;50.862;6.494;2024-01-27T15:39:51;8.60;99.90
2757;DHT22;1386;50.862;6.494;2024-01-27T15:42:32;8.60;99.90
2757;DHT22;1386;50.862;6.494;2024-01-27T15:45:07;8.50;99.90
2757;DHT22;1386;50.862;6.494;2024-01-27T15:47:50;8.40;99.90
2757;DHT22;1386;50.862;6.494;2024-01-27T15:50:28;8.30;99.90
2757;DHT22;1386;50.862;6.494;2024-01-27T15:53:15;8.20;99.90
2757;DHT22;1386;50.862;6.494;2024-01-27T15:55:59;8.20;99.90
2757;DHT22;1386;50.862;6.494;2024-01-27T15:58:41;8.10;99.90
2757;DHT22;1386;50.862;6.494;2024-01-27T16:01:15;8.00;99.90
2757;DHT22;1386;50.862;6.494;2024-01-27T16:03:50;7.90;99.90
2757;DHT22;1386;50.862;6.494;2024-01-27T16:06:32;7.90;99.90
2757;DHT22;1386;50.862;6.494;2024-01-27T16:09:11;7.80;99.90
2757;DHT22;1386;50.862;6.494;2024-01-27T16:11:47;7.80;99.90
2757;DHT22;1386;50.862;6.494;2024-01-27T16:14:42;7.80;99.90
2757;DHT22;1386;50.862;6.494;2024-01-27T16:20:15;7.60;99.90
2757;DHT22;1386;50.862;6.494;2024-01-27T16:22:55;7.60;99.90
2757;DHT22;1386;50.862;6.494;2024-01-27T16:25:46;7.50;99.90
2757;DHT22;1386;50.862;6.494;2024-01-27T16:28:30;7.40;99.90
2757;DHT22;1386;50.862;6.494;2024-01-27T16:31:03;7.30;99.90
2757;DHT22;1386;50.862;6.494;2024-01-27T16:33:41;7.20;99.90
2757;DHT22;1386;50.862;6.494;2024-01-27T16:36:34;7.10;99.90
2757;DHT22;1386;50.862;6.494;2024-01-27T16:39:09;7.10;99.90
2757;DHT22;1386;50.862;6.494;2024-01-27T16:42:05;7.00;99.90
2757;DHT22;1386;50.862;6.494;2024-01-27T16:44:52;7.00;99.90
2757;DHT22;1386;50.862;6.494;2024-01-27T16:47:23;6.90;99.90
2757;DHT22;1386;50.862;6.494;2024-01-27T16:49:59;6.90;99.90
2757;DHT22;1386;50.862;6.494;2024-01-27T16:52:50;6.90;99.90
2757;DHT22;1386;50.862;6.494;2024-01-27T16:55:35;6.80;99.90
2757;DHT22;1386;50.862;6.494;2024-01-27T16:58:13;6.80;99.90
2757;DHT22;1386;50.862;6.494;2024-01-27T17:00:49;6.70;99.90
2757;DHT22;1386;50.862;6.494;2024-01-27T17:03:25;6.70;99.90
2757;DHT22;1386;50.862;6.494;2024-01-27T17:05:54;6.60;99.90
2757;DHT22;1386;50.862;6.494;2024-01-27T17:08:31;6.60;99.90
2757;DHT22;1386;50.862;6.494;2024-01-27T17:11:13;6.50;99.90
2757;DHT22;1386;50.862;6.494;2024-01-27T17:13:46;6.50;99.90
2757;DHT22;1386;50.862;6.494;2024-01-27T17:16:23;6.50;99.90
2757;DHT22;1386;50.862;6.494;2024-01-27T17:18:55;6.40;99.90
2757;DHT22;1386;50.862;6.494;2024-01-27T17:21:25;6.40;99.90
2757;DHT22;1386;50.862;6.494;2024-01-27T17:23:52;6.40;99.90
2757;DHT22;1386;50.862;6.494;2024-01-27T17:26:28;6.40;99.90
2757;DHT22;1386;50.862;6.494;2024-01-27T17:29:05;6.30;99.90
2757;DHT22;1386;50.862;6.494;2024-01-27T17:31:39;6.30;99.90